Time;durP1;ratioP1;P1;durP2;ratioP2;P2;SDS_P1;SDS_P2;PMS_P1;PMS_P2;Temp;Humidity;BMP_temperature;BMP_pressure;BME280_temperature;BME280_humidity;BME280_pressure;Samples;Min_cycle;Max_cycle;Signal;HPM_P1;HPM_P2
2023/04/14 00:01:44;;;;;;;;;6.75;6.00;;;;;10.35;49.42;100493.13;5042329;28;45336;-66
2023/04/14 00:04:10;;;;;;;;;7.25;7.25;;;;;10.32;49.05;100486.16;5042559;28;45538;-66
2023/04/14 00:06:36;;;;;;;;;8.00;6.50;;;;;10.31;49.21;100488.81;5041039;28;47271;-67
2023/04/14 00:09:01;;;;;;;;;5.75;4.25;;;;;10.30;49.24;100490.59;5042208;28;45344;-67
2023/04/14 00:11:26;;;;;;;;;8.25;7.00;;;;;10.28;49.34;100495.00;5042387;28;45339;-67
2023/04/14 00:13:51;;;;;;;;;6.50;4.75;;;;;10.27;49.33;100492.41;5057801;28;45935;-66
2023/04/14 00:16:17;;;;;;;;;5.75;5.00;;;;;10.23;49.45;100488.97;5042158;28;46057;-66
2023/04/14 00:18:42;;;;;;;;;3.25;3.25;;;;;10.21;49.47;100488.09;5042303;28;45235;-66
2023/04/14 00:21:07;;;;;;;;;7.00;6.25;;;;;10.22;49.41;100492.47;5042242;28;45158;-66
2023/04/14 00:23:33;;;;;;;;;5.00;5.00;;;;;10.22;49.57;100489.84;5042277;28;45230;-66
2023/04/14 00:25:58;;;;;;;;;5.75;4.75;;;;;10.12;49.66;100467.25;5041663;28;46797;-66
2023/04/14 00:28:23;;;;;;;;;7.25;5.00;;;;;10.16;49.77;100469.81;5042171;28;45213;-66
2023/04/14 00:30:49;;;;;;;;;6.00;6.00;;;;;10.15;49.49;100475.06;5027690;28;45222;-66
2023/04/14 00:33:14;;;;;;;;;7.00;5.25;;;;;10.13;49.65;100466.38;5033402;28;45450;-66
2023/04/14 00:35:40;;;;;;;;;5.25;4.75;;;;;10.13;49.95;100475.09;5040820;28;46441;-67
2023/04/14 00:38:05;;;;;;;;;6.00;5.00;;;;;10.12;50.00;100469.88;5042004;28;45249;-66
2023/04/14 00:40:30;;;;;;;;;7.75;4.75;;;;;10.09;50.02;100465.56;5041508;28;45221;-66
2023/04/14 00:42:56;;;;;;;;;6.25;6.25;;;;;9.98;49.73;100454.38;5041841;28;45553;-66
2023/04/14 00:45:21;;;;;;;;;5.00;4.00;;;;;10.06;49.83;100466.47;5041850;28;45276;-66
2023/04/14 00:47:49;;;;;;;;;7.00;7.00;;;;;10.05;50.13;100474.34;5041815;28;45154;-66
2023/04/14 00:50:17;;;;;;;;;4.00;4.00;;;;;10.01;50.09;100468.31;5040824;28;45261;-66
2023/04/14 00:52:44;;;;;;;;;6.50;3.75;;;;;9.99;50.00;100458.72;5041737;28;45159;-66
2023/04/14 00:55:10;;;;;;;;;5.50;5.50;;;;;9.97;50.31;100457.88;5041084;28;46010;-66
2023/04/14 00:57:35;;;;;;;;;7.25;5.75;;;;;9.94;50.09;100458.78;5041558;28;45259;-66
2023/04/14 01:00:04;;;;;;;;;7.25;6.50;;;;;9.90;50.04;100457.13;5041829;28;45277;-66
2023/04/14 01:02:29;;;;;;;;;4.00;4.00;;;;;9.87;50.04;100458.03;5040276;28;45351;-65
2023/04/14 01:04:55;;;;;;;;;7.00;5.75;;;;;9.85;50.12;100454.56;5041228;28;45330;-64
2023/04/14 01:07:23;;;;;;;;;5.00;4.50;;;;;9.83;50.17;100455.47;5041693;28;45292;-64
2023/04/14 01:09:50;;;;;;;;;7.00;5.00;;;;;9.79;50.32;100461.66;5041175;28;45299;-64
2023/04/14 01:12:43;;;;;;;;;4.50;4.50;;;;;9.80;50.07;100466.00;5041522;28;45453;-66
2023/04/14 01:15:20;;;;;;;;;4.00;4.00;;;;;9.78;50.39;100465.19;5041223;28;46119;-67
2023/04/14 01:18:18;;;;;;;;;4.75;3.75;;;;;9.76;50.36;100462.59;5041360;28;45174;-67
2023/04/14 01:20:49;;;;;;;;;5.00;5.00;;;;;9.70;50.51;100453.03;5041410;28;45267;-67
2023/04/14 01:23:25;;;;;;;;;4.75;3.75;;;;;9.72;50.52;100466.13;5041110;28;45552;-65
2023/04/14 01:26:04;;;;;;;;;6.00;4.75;;;;;9.70;50.67;100458.28;5040719;28;46197;-65
2023/04/14 01:28:30;;;;;;;;;2.25;2.25;;;;;9.69;50.43;100467.03;5041195;28;45411;-65
2023/04/14 01:31:29;;;;;;;;;5.50;4.00;;;;;9.67;50.59;100468.84;5027185;28;45407;-64
2023/04/14 01:34:09;;;;;;;;;5.00;4.00;;;;;9.65;50.71;100460.09;5038775;28;45223;-64
2023/04/14 01:36:44;;;;;;;;;4.00;4.00;;;;;9.62;50.71;100461.91;5039794;28;47284;-64
2023/04/14 01:39:14;;;;;;;;;3.25;2.50;;;;;9.59;50.67;100452.31;5039299;28;45328;-64
2023/04/14 01:41:51;;;;;;;;;3.00;3.00;;;;;9.60;50.78;100456.69;5040049;28;45202;-64
2023/04/14 01:44:18;;;;;;;;;3.00;3.00;;;;;9.57;50.88;100462.84;5040834;28;45176;-64
2023/04/14 01:46:45;;;;;;;;;2.75;2.75;;;;;9.54;50.95;100465.50;5040913;28;46183;-65
2023/04/14 01:49:11;;;;;;;;;3.00;3.00;;;;;9.50;50.71;100460.34;5040562;28;45246;-64
2023/04/14 01:51:41;;;;;;;;;3.25;3.25;;;;;9.49;50.82;100463.84;5040968;28;45383;-65
2023/04/14 01:54:08;;;;;;;;;2.25;2.25;;;;;9.46;50.93;100463.88;5040521;28;45473;-65
2023/04/14 01:56:37;;;;;;;;;3.75;3.75;;;;;9.43;50.93;100462.16;5040518;28;45430;-65
2023/04/14 01:59:03;;;;;;;;;3.00;3.00;;;;;9.40;50.96;100463.06;5040379;28;45245;-65
2023/04/14 02:01:29;;;;;;;;;4.25;3.00;;;;;9.37;50.94;100457.00;5040366;28;45344;-65
2023/04/14 02:03:54;;;;;;;;;7.75;4.50;;;;;9.37;51.01;100462.25;5056327;28;45624;-65
2023/04/14 02:06:21;;;;;;;;;4.00;3.00;;;;;9.32;50.90;100459.69;5040590;28;46273;-65
2023/04/14 02:08:48;;;;;;;;;3.00;3.00;;;;;9.31;50.80;100452.72;5039248;28;45986;-65
2023/04/14 02:11:14;;;;;;;;;4.00;3.00;;;;;9.29;50.96;100457.09;5055762;28;45526;-65
2023/04/14 02:13:41;;;;;;;;;3.00;3.00;;;;;9.31;50.99;100462.31;5040358;28;45252;-65
2023/04/14 02:16:09;;;;;;;;;2.00;2.00;;;;;9.29;50.90;100466.75;5040260;28;45348;-65
2023/04/14 02:18:37;;;;;;;;;3.75;3.25;;;;;9.23;51.08;100458.06;5040254;28;45241;-64
2023/04/14 02:21:03;;;;;;;;;3.00;3.00;;;;;9.24;51.15;100451.06;5040297;28;45513;-65
2023/04/14 02:23:30;;;;;;;;;4.00;3.00;;;;;9.22;51.12;100453.72;5040224;28;45307;-64
2023/04/14 02:26:09;;;;;;;;;4.50;3.75;;;;;9.19;51.18;100461.59;5039806;28;45386;-64
2023/04/14 02:28:42;;;;;;;;;2.75;2.00;;;;;9.17;51.01;100459.88;5040268;28;45261;-65
2023/04/14 02:31:11;;;;;;;;;2.00;2.00;;;;;9.13;51.24;100455.56;5023890;28;45217;-64
2023/04/14 02:33:38;;;;;;;;;2.75;2.75;;;;;9.05;51.50;100442.56;5034661;28;45312;-64
2023/04/14 02:36:15;;;;;;;;;3.00;3.00;;;;;9.05;51.52;100448.66;5039888;28;46444;-65
2023/04/14 02:38:48;;;;;;;;;4.00;2.75;;;;;9.00;51.80;100442.63;5040034;28;45382;-64
2023/04/14 02:41:23;;;;;;;;;4.75;4.00;;;;;8.98;51.49;100444.41;5039443;28;45471;-67
2023/04/14 02:44:24;;;;;;;;;4.75;4.00;;;;;8.96;51.68;100435.69;5039914;28;45477;-64
2023/04/14 02:47:05;;;;;;;;;3.00;3.00;;;;;8.89;51.59;100436.63;5040415;28;45309;-65
2023/04/14 02:49:35;;;;;;;;;3.00;2.00;;;;;8.88;51.64;100437.53;5039751;28;45561;-64
2023/04/14 02:52:04;;;;;;;;;4.50;3.50;;;;;8.84;51.48;100441.97;5039901;28;45326;-67
2023/04/14 02:54:34;;;;;;;;;3.75;2.75;;;;;8.82;51.98;100429.72;5039568;28;45392;-65
2023/04/14 02:57:00;;;;;;;;;3.50;3.50;;;;;8.77;51.54;100435.91;5039792;28;45714;-66
2023/04/14 02:59:28;;;;;;;;;4.00;4.00;;;;;8.75;51.70;100423.72;5039714;28;45506;-66
2023/04/14 03:01:55;;;;;;;;;5.50;2.50;;;;;8.72;51.87;100422.00;5039587;28;45489;-66
2023/04/14 03:04:22;;;;;;;;;4.25;3.75;;;;;8.69;51.62;100419.41;5039821;28;45265;-66
2023/04/14 03:06:48;;;;;;;;;3.75;3.75;;;;;8.65;51.75;100417.69;5055053;28;46286;-66
2023/04/14 03:09:15;;;;;;;;;3.00;2.25;;;;;8.65;51.56;100412.47;5039533;28;45287;-66
2023/04/14 03:11:41;;;;;;;;;3.00;3.00;;;;;8.63;51.78;100409.00;5039681;28;45435;-67
2023/04/14 03:14:07;;;;;;;;;4.00;4.00;;;;;8.62;51.74;100408.13;5041237;28;45217;-67
2023/04/14 03:16:38;;;;;;;;;2.00;2.00;;;;;8.65;51.69;100427.31;5042777;28;51481;-67
2023/04/14 03:19:04;;;;;;;;;7.00;3.75;;;;;8.61;51.77;100418.63;5043181;28;45431;-65
2023/04/14 03:21:30;;;;;;;;;3.00;3.00;;;;;8.62;51.88;100418.59;5043087;28;45264;-65
2023/04/14 03:23:57;;;;;;;;;3.25;3.25;;;;;8.61;51.63;100410.78;5043248;28;45210;-66
2023/04/14 03:26:24;;;;;;;;;3.50;3.50;;;;;8.57;51.84;100409.94;5042626;28;46134;-66
2023/04/14 03:28:52;;;;;;;;;4.00;4.00;;;;;8.58;51.83;100406.44;5042850;28;45286;-66
2023/04/14 03:31:19;;;;;;;;;3.00;3.00;;;;;8.58;51.95;100406.44;5025262;28;45223;-66
2023/04/14 03:33:47;;;;;;;;;3.25;2.75;;;;;8.56;51.80;100410.81;5039305;28;45144;-66
2023/04/14 03:36:15;;;;;;;;;8.00;4.50;;;;;8.57;51.76;100409.06;5042654;28;46194;-66
2023/04/14 03:38:42;;;;;;;;;3.25;2.50;;;;;8.55;51.84;100405.59;5041571;28;45442;-66
2023/04/14 03:41:10;;;;;;;;;2.00;2.00;;;;;8.57;51.75;100406.47;5042308;28;45232;-66
2023/04/14 03:43:37;;;;;;;;;2.00;2.00;;;;;8.55;51.86;100405.59;5042992;28;45245;-66
2023/04/14 03:46:04;;;;;;;;;4.00;3.00;;;;;8.52;51.75;100408.25;5042674;28;45468;-66
2023/04/14 03:48:33;;;;;;;;;3.75;3.75;;;;;8.53;51.92;100407.34;5058167;28;45346;-66
2023/04/14 03:51:01;;;;;;;;;5.25;4.00;;;;;8.52;51.93;100403.03;5041298;28;45486;-66
2023/04/14 03:53:29;;;;;;;;;2.75;2.00;;;;;8.53;51.81;100407.34;5042721;28;45198;-66
2023/04/14 03:55:58;;;;;;;;;5.00;4.25;;;;;8.51;51.95;100407.38;5042124;28;45365;-66
2023/04/14 03:58:25;;;;;;;;;5.00;5.00;;;;;8.48;52.08;100404.81;5041229;28;45447;-66
2023/04/14 04:00:52;;;;;;;;;4.00;4.00;;;;;8.47;52.12;100396.97;5042588;28;45260;-66
2023/04/14 04:03:19;;;;;;;;;4.50;4.50;;;;;8.39;52.02;100390.03;5042382;28;45326;-66
2023/04/14 04:05:45;;;;;;;;;2.00;2.00;;;;;8.46;51.89;100401.31;5042405;28;45435;-66
2023/04/14 04:08:11;;;;;;;;;5.25;5.25;;;;;8.45;52.07;100405.69;5042262;28;45414;-66
2023/04/14 04:10:38;;;;;;;;;4.25;4.25;;;;;8.44;52.15;100400.47;5042292;28;45262;-66
2023/04/14 04:13:11;;;;;;;;;4.00;4.00;;;;;8.39;52.12;100399.63;5042299;28;45308;-66
2023/04/14 04:15:37;;;;;;;;;5.00;5.00;;;;;8.43;52.05;100403.97;5040939;28;47258;-66
2023/04/14 04:18:06;;;;;;;;;3.50;3.50;;;;;8.41;52.06;100401.34;5042181;28;45492;-66
2023/04/14 04:20:33;;;;;;;;;6.00;5.50;;;;;8.38;52.08;100398.75;5042469;28;45410;-66
2023/04/14 04:23:01;;;;;;;;;6.00;6.00;;;;;8.38;52.19;100392.66;5042210;28;45315;-66
2023/04/14 04:25:26;;;;;;;;;7.25;7.25;;;;;8.36;52.53;100397.91;5041745;28;45639;-66
2023/04/14 04:27:52;;;;;;;;;5.00;5.00;;;;;8.33;52.37;100390.09;5040779;28;45779;-66
2023/04/14 04:30:19;;;;;;;;;7.00;6.00;;;;;8.36;52.24;100390.03;5033637;28;45401;-66
2023/04/14 04:32:45;;;;;;;;;3.75;3.75;;;;;8.35;52.25;100382.22;5030249;28;45432;-66
2023/04/14 04:35:11;;;;;;;;;4.50;4.50;;;;;8.35;52.21;100384.84;5042000;28;45307;-66
2023/04/14 04:37:38;;;;;;;;;5.00;5.00;;;;;8.34;52.29;100386.59;5041981;28;45237;-66
2023/04/14 04:40:06;;;;;;;;;5.50;5.25;;;;;8.32;52.23;100377.88;5041507;28;45414;-65
2023/04/14 04:42:31;;;;;;;;;5.50;4.75;;;;;8.31;52.30;100370.91;5041717;28;45538;-66
2023/04/14 04:44:56;;;;;;;;;8.00;6.25;;;;;8.30;52.37;100383.13;5041714;28;53393;-66
2023/04/14 04:47:22;;;;;;;;;6.00;6.00;;;;;8.28;52.27;100363.94;5041643;28;45253;-65
2023/04/14 04:49:47;;;;;;;;;7.25;5.75;;;;;8.27;52.53;100369.22;5041953;28;45232;-66
2023/04/14 04:52:12;;;;;;;;;5.50;5.25;;;;;8.23;52.45;100364.91;5041875;28;45217;-66
2023/04/14 04:54:38;;;;;;;;;9.25;6.25;;;;;8.23;52.70;100359.66;5041092;28;53962;-66
2023/04/14 04:57:03;;;;;;;;;8.00;5.75;;;;;8.21;52.30;100364.03;5041685;28;45209;-66
2023/04/14 04:59:28;;;;;;;;;11.00;7.25;;;;;8.20;52.49;100365.78;5041799;28;45364;-66
2023/04/14 05:01:54;;;;;;;;;7.00;5.50;;;;;8.19;52.36;100361.44;5041099;28;53590;-66
2023/04/14 05:04:20;;;;;;;;;7.00;7.00;;;;;8.18;52.40;100358.84;5041484;28;46224;-66
2023/04/14 05:06:45;;;;;;;;;7.00;7.00;;;;;8.18;52.56;100356.22;5041876;28;45363;-66
2023/04/14 05:09:11;;;;;;;;;9.75;6.25;;;;;8.17;52.35;100362.34;5041352;28;45216;-65
2023/04/14 05:11:36;;;;;;;;;6.50;6.50;;;;;8.17;52.75;100362.34;5041567;28;45294;-66
2023/04/14 05:14:01;;;;;;;;;7.75;6.50;;;;;8.16;52.68;100355.38;5040593;28;46756;-66
2023/04/14 05:16:27;;;;;;;;;4.75;4.75;;;;;8.16;52.61;100356.22;5041313;28;45221;-66
2023/04/14 05:18:53;;;;;;;;;8.50;6.75;;;;;8.17;52.58;100362.34;5041506;28;45335;-65
2023/04/14 05:21:18;;;;;;;;;10.00;6.00;;;;;8.16;52.68;100355.38;5041152;28;45336;-66
2023/04/14 05:23:45;;;;;;;;;10.25;7.25;;;;;8.15;52.66;100349.28;5041163;28;46538;-66
2023/04/14 05:26:11;;;;;;;;;7.25;7.25;;;;;8.15;52.75;100349.28;5040730;28;45511;-65
2023/04/14 05:28:38;;;;;;;;;8.75;7.50;;;;;8.11;52.79;100351.06;5041423;28;45372;-65
2023/04/14 05:31:03;;;;;;;;;7.25;6.75;;;;;8.14;52.71;100348.38;5025487;28;45169;-66
2023/04/14 05:33:29;;;;;;;;;6.00;6.00;;;;;8.12;52.78;100339.69;5035143;28;46182;-65
2023/04/14 05:35:54;;;;;;;;;5.75;5.75;;;;;8.14;52.66;100337.06;5040660;28;45236;-65
2023/04/14 05:38:20;;;;;;;;;9.25;9.00;;;;;8.14;52.57;100337.91;5056374;28;45267;-66
2023/04/14 05:40:46;;;;;;;;;10.50;8.25;;;;;8.13;52.54;100338.78;5040549;28;45570;-66
2023/04/14 05:43:12;;;;;;;;;9.00;9.00;;;;;8.13;52.78;100336.19;5041033;28;46217;-65
2023/04/14 05:45:37;;;;;;;;;6.75;6.75;;;;;8.11;52.68;100342.31;5040849;28;45561;-65
2023/04/14 05:48:03;;;;;;;;;8.00;6.75;;;;;8.13;52.71;100340.56;5041130;28;45296;-65
2023/04/14 05:50:28;;;;;;;;;7.00;7.00;;;;;8.11;52.65;100335.34;5040771;28;45296;-65
2023/04/14 05:52:53;;;;;;;;;9.75;8.75;;;;;8.11;52.54;100335.34;5040854;28;45423;-65
2023/04/14 05:55:19;;;;;;;;;8.00;7.50;;;;;8.09;52.73;100329.25;5040336;28;45366;-65
2023/04/14 05:57:45;;;;;;;;;10.00;7.00;;;;;8.09;52.74;100329.25;5040987;28;45324;-65
2023/04/14 06:00:11;;;;;;;;;10.25;9.25;;;;;8.09;52.97;100334.50;5040496;28;45334;-65
2023/04/14 06:02:40;;;;;;;;;10.75;10.75;;;;;8.09;52.70;100324.03;5040512;28;46686;-65
2023/04/14 06:05:06;;;;;;;;;8.75;7.25;;;;;8.09;52.67;100318.78;5040630;28;45237;-66
2023/04/14 06:07:32;;;;;;;;;12.75;12.75;;;;;8.11;52.94;100317.03;5056316;28;45193;-66
2023/04/14 06:09:58;;;;;;;;;10.25;9.25;;;;;8.09;52.83;100310.06;5040669;28;45609;-65
2023/04/14 06:12:23;;;;;;;;;11.50;10.50;;;;;8.11;52.78;100317.03;5040479;28;46029;-65
2023/04/14 06:14:48;;;;;;;;;9.75;9.00;;;;;8.11;52.87;100310.91;5040472;28;45498;-65
2023/04/14 06:17:14;;;;;;;;;12.75;10.50;;;;;8.14;52.87;100316.13;5040576;28;45299;-66
2023/04/14 06:19:39;;;;;;;;;12.00;11.00;;;;;8.14;52.89;100308.28;5040241;28;45362;-66
2023/04/14 06:22:04;;;;;;;;;9.75;9.75;;;;;8.15;52.96;100317.88;5040247;28;45312;-65
2023/04/14 06:24:33;;;;;;;;;14.75;13.25;;;;;8.16;52.97;100303.00;5039851;28;45279;-66
2023/04/14 06:26:59;;;;;;;;;23.25;18.50;;;;;8.17;52.95;100310.84;5040480;28;45240;-68
2023/04/14 06:29:25;;;;;;;;;11.50;11.50;;;;;8.15;52.89;100302.16;5038396;28;45177;-65
2023/04/14 06:31:50;;;;;;;;;12.50;11.00;;;;;8.21;53.25;100295.97;5020666;28;45869;-65
2023/04/14 06:34:16;;;;;;;;;9.00;8.25;;;;;8.21;52.99;100306.44;5038903;28;45318;-66
2023/04/14 06:36:41;;;;;;;;;10.00;9.50;;;;;8.22;53.08;100302.94;5040398;28;45268;-66
2023/04/14 06:39:07;;;;;;;;;7.25;7.25;;;;;8.23;53.17;100300.31;5039222;28;55546;-66
2023/04/14 06:41:32;;;;;;;;;11.00;10.00;;;;;8.24;53.20;100306.44;5040050;28;45300;-66
2023/04/14 06:43:57;;;;;;;;;10.25;10.25;;;;;8.23;52.98;100295.06;5038749;28;45517;-66
2023/04/14 06:46:22;;;;;;;;;12.00;10.75;;;;;8.26;53.26;100286.31;5040443;28;45444;-66
2023/04/14 06:48:48;;;;;;;;;10.50;9.75;;;;;8.25;52.99;100292.44;5038798;28;45319;-66
2023/04/14 06:51:13;;;;;;;;;10.25;8.75;;;;;8.24;53.21;100277.63;5040123;28;46172;-65
2023/04/14 06:53:38;;;;;;;;;10.50;10.50;;;;;8.27;53.31;100286.28;5039883;28;45379;-65
2023/04/14 06:56:05;;;;;;;;;8.25;8.25;;;;;8.28;53.38;100279.31;5039818;28;45446;-66
2023/04/14 06:58:31;;;;;;;;;11.00;11.00;;;;;8.27;53.21;100274.97;5039834;28;45288;-66
2023/04/14 07:00:58;;;;;;;;;11.50;9.25;;;;;8.29;53.37;100279.28;5039487;28;45394;-66
2023/04/14 07:03:24;;;;;;;;;6.00;4.50;;;;;8.28;53.53;100277.56;5039773;28;45318;-66
2023/04/14 07:05:50;;;;;;;;;10.75;9.50;;;;;8.30;53.60;100256.59;5040021;28;45321;-66
2023/04/14 07:08:17;;;;;;;;;11.50;8.50;;;;;8.32;53.54;100261.81;5039533;28;45220;-66
2023/04/14 07:10:42;;;;;;;;;11.50;11.50;;;;;8.34;53.42;100265.28;5039465;28;45431;-66
2023/04/14 07:13:08;;;;;;;;;11.75;8.25;;;;;8.37;53.38;100258.25;5039442;28;45340;-66
2023/04/14 07:15:33;;;;;;;;;7.50;7.50;;;;;8.38;53.65;100272.22;5040059;28;45355;-66
2023/04/14 07:17:58;;;;;;;;;10.50;10.00;;;;;8.42;53.75;100266.06;5039758;28;45305;-66
2023/04/14 07:20:24;;;;;;;;;11.50;10.25;;;;;8.44;53.66;100267.75;5039185;28;57420;-66
2023/04/14 07:22:49;;;;;;;;;10.25;10.25;;;;;8.45;53.62;100269.50;5039522;28;45309;-66
2023/04/14 07:25:15;;;;;;;;;6.25;5.00;;;;;8.48;53.70;100254.66;5039678;28;45396;-66
2023/04/14 07:27:40;;;;;;;;;7.00;7.00;;;;;8.52;53.72;100261.59;5039495;28;45519;-66
2023/04/14 07:30:06;;;;;;;;;11.75;10.00;;;;;8.55;53.85;100267.66;5031012;28;46530;-66
2023/04/14 07:32:32;;;;;;;;;9.00;9.00;;;;;8.56;53.87;100260.66;5032118;28;45434;-66
2023/04/14 07:34:57;;;;;;;;;12.50;10.25;;;;;8.61;53.85;100253.59;5039648;28;45283;-66
2023/04/14 07:37:23;;;;;;;;;8.00;6.75;;;;;8.65;54.05;100259.69;5039307;28;45439;-66
2023/04/14 07:39:48;;;;;;;;;10.00;7.00;;;;;8.66;53.86;100248.31;5038892;28;45328;-66
2023/04/14 07:42:14;;;;;;;;;9.25;7.50;;;;;8.69;54.19;100241.28;5039074;28;45311;-66
2023/04/14 07:44:39;;;;;;;;;8.00;8.00;;;;;8.71;54.26;100236.88;5039456;28;45244;-67
2023/04/14 07:47:04;;;;;;;;;7.75;7.25;;;;;8.70;54.02;100243.00;5039453;28;45590;-67
2023/04/14 07:49:30;;;;;;;;;7.25;7.00;;;;;8.78;53.99;100235.03;5039129;28;47058;-67
2023/04/14 07:51:56;;;;;;;;;7.00;6.00;;;;;8.78;54.21;100233.28;5039837;28;45251;-67
2023/04/14 07:54:22;;;;;;;;;7.75;7.75;;;;;8.85;54.25;100227.94;5037905;28;45315;-66
2023/04/14 07:56:47;;;;;;;;;7.50;7.50;;;;;8.84;54.18;100224.47;5039235;28;45509;-66
2023/04/14 07:59:12;;;;;;;;;10.00;8.25;;;;;8.89;54.31;100217.41;5039272;28;46905;-67
2023/04/14 08:01:38;;;;;;;;;11.75;11.25;;;;;8.97;54.07;100221.63;5042450;28;45322;-66
2023/04/14 08:04:03;;;;;;;;;8.75;6.75;;;;;9.00;54.49;100217.22;5042812;28;45359;-66
2023/04/14 08:06:29;;;;;;;;;6.00;5.50;;;;;9.03;54.37;100213.69;5041303;28;45438;-66
2023/04/14 08:08:54;;;;;;;;;8.25;7.75;;;;;9.09;54.22;100208.34;5042094;28;45428;-66
2023/04/14 08:11:19;;;;;;;;;7.50;7.00;;;;;9.10;54.12;100210.94;5042416;28;45346;-66
2023/04/14 08:13:45;;;;;;;;;8.00;8.00;;;;;9.15;54.37;100207.38;5041559;28;45944;-66
2023/04/14 08:16:10;;;;;;;;;8.25;6.50;;;;;9.20;54.34;100214.25;5042535;28;45354;-66
2023/04/14 08:18:36;;;;;;;;;6.00;5.50;;;;;9.25;54.28;100208.94;5040763;28;46643;-66
2023/04/14 08:21:01;;;;;;;;;6.75;6.50;;;;;9.29;54.63;100215.00;5042289;28;45334;-67
2023/04/14 08:23:26;;;;;;;;;5.50;5.50;;;;;9.32;54.43;100218.44;5042147;28;45232;-66
2023/04/14 08:25:52;;;;;;;;;5.75;5.75;;;;;9.32;54.22;100214.94;5040658;28;45370;-66
2023/04/14 08:28:17;;;;;;;;;7.00;6.00;;;;;9.39;54.43;100211.34;5041971;28;46286;-67
2023/04/14 08:30:43;;;;;;;;;4.00;3.75;;;;;9.41;54.35;100205.16;5030072;28;45261;-67
2023/04/14 08:33:08;;;;;;;;;6.75;5.25;;;;;9.46;54.46;100206.84;5033326;28;45265;-66
2023/04/14 08:35:34;;;;;;;;;8.00;6.00;;;;;9.52;54.44;100206.72;5037349;28;45471;-66
2023/04/14 08:38:00;;;;;;;;;6.25;6.25;;;;;9.54;54.39;100204.94;5041111;28;46281;-66
2023/04/14 08:40:34;;;;;;;;;5.50;4.75;;;;;9.56;54.34;100201.41;5057035;27;45225;-66
2023/04/14 08:43:00;;;;;;;;;8.50;5.50;;;;;9.61;54.48;100198.69;5040895;28;45288;-67
2023/04/14 08:45:26;;;;;;;;;5.25;3.25;;;;;9.63;54.39;100199.50;5041774;28;45258;-66
2023/04/14 08:47:55;;;;;;;;;8.00;6.00;;;;;9.67;54.31;100195.09;5041888;28;45214;-66
2023/04/14 08:50:25;;;;;;;;;4.00;4.00;;;;;9.69;54.40;100194.16;5041517;28;45245;-66
2023/04/14 08:52:55;;;;;;;;;4.00;4.00;;;;;9.74;54.44;100197.56;5041864;28;45353;-66
2023/04/14 08:55:23;;;;;;;;;4.00;4.00;;;;;9.75;54.33;100178.28;5041262;28;45325;-66
2023/04/14 08:57:49;;;;;;;;;6.00;4.00;;;;;9.82;54.57;100188.66;5041667;28;45364;-66
2023/04/14 09:00:15;;;;;;;;;7.00;4.00;;;;;9.82;54.48;100188.66;5040237;28;45471;-67
2023/04/14 09:02:41;;;;;;;;;3.75;3.75;;;;;9.89;54.36;100185.03;5041715;28;45485;-67
2023/04/14 09:05:08;;;;;;;;;1.75;1.75;;;;;9.90;54.49;100192.88;5041491;28;45229;-66
2023/04/14 09:07:33;;;;;;;;;4.75;4.00;;;;;9.95;54.31;100189.28;5041480;28;46066;-66
2023/04/14 09:09:59;;;;;;;;;4.25;3.00;;;;;9.98;54.44;100186.63;5041205;28;45483;-65
2023/04/14 09:12:27;;;;;;;;;4.00;3.00;;;;;10.02;54.45;100177.78;5040976;28;45289;-66
2023/04/14 09:14:53;;;;;;;;;2.50;2.50;;;;;10.03;54.66;100169.00;5041299;28;45473;-66
2023/04/14 09:17:19;;;;;;;;;2.00;2.00;;;;;10.09;54.46;100167.09;5041353;28;45998;-66
2023/04/14 09:19:46;;;;;;;;;1.00;1.00;;;;;10.13;54.18;100177.56;5041230;28;45353;-67
2023/04/14 09:22:12;;;;;;;;;4.00;2.00;;;;;10.16;54.52;100166.97;5041510;28;45236;-67
2023/04/14 09:24:37;;;;;;;;;4.00;2.00;;;;;10.18;54.42;100159.94;5040965;28;45186;-65
2023/04/14 09:27:06;;;;;;;;;4.00;3.00;;;;;10.22;54.30;100153.72;5039891;28;48297;-65
2023/04/14 09:29:32;;;;;;;;;5.75;4.50;;;;;10.26;54.40;100147.47;5038284;28;45319;-65
2023/04/14 09:31:58;;;;;;;;;5.00;3.25;;;;;10.30;54.32;100149.16;5022827;28;45291;-65
2023/04/14 09:34:23;;;;;;;;;3.00;2.00;;;;;10.34;54.09;100140.31;5041037;28;45184;-65
2023/04/14 09:37:01;;;;;;;;;3.00;1.75;;;;;10.36;54.18;100143.81;5041294;28;45342;-66
2023/04/14 09:39:27;;;;;;;;;2.25;1.00;;;;;10.37;53.99;100129.75;5040488;28;45182;-66
2023/04/14 09:41:52;;;;;;;;;3.75;1.50;;;;;10.38;54.13;100126.22;5041004;28;45235;-66
2023/04/14 09:44:18;;;;;;;;;3.50;2.00;;;;;10.44;54.19;100124.34;5040769;28;45302;-65
2023/04/14 09:47:00;;;;;;;;;2.25;2.25;;;;;10.46;54.40;100125.19;5040820;28;46273;-67
2023/04/14 09:49:26;;;;;;;;;3.00;2.00;;;;;10.49;53.95;100125.09;5040758;28;45224;-66
2023/04/14 09:51:54;;;;;;;;;3.75;3.25;;;;;10.50;54.26;100113.72;5041154;28;45387;-66
2023/04/14 09:54:26;;;;;;;;;8.00;3.00;;;;;10.52;53.91;100110.16;5040421;28;45423;-66
2023/04/14 09:56:52;;;;;;;;;6.00;3.75;;;;;10.54;54.00;100110.97;5040473;28;45239;-66
2023/04/14 09:59:35;;;;;;;;;3.25;3.00;;;;;10.57;53.90;100100.38;5040604;28;45405;-65
2023/04/14 10:02:08;;;;;;;;;2.75;1.00;;;;;10.61;54.13;100114.31;5056450;28;45441;-65
2023/04/14 10:04:35;;;;;;;;;2.00;2.00;;;;;10.63;53.83;100094.13;5039247;28;45605;-66
2023/04/14 10:07:01;;;;;;;;;1.50;1.50;;;;;10.66;53.74;100094.03;5040597;28;47066;-66
2023/04/14 10:09:27;;;;;;;;;2.50;2.50;;;;;10.70;53.76;100090.47;5040094;28;45293;-65
2023/04/14 10:12:05;;;;;;;;;2.75;2.50;;;;;10.72;53.93;100103.56;5040770;28;45354;-66
2023/04/14 10:14:32;;;;;;;;;2.00;2.00;;;;;10.75;53.99;100095.56;5040570;28;45531;-66
2023/04/14 10:16:58;;;;;;;;;2.00;2.00;;;;;10.79;53.97;100075.34;5040500;28;47099;-66
2023/04/14 10:19:24;;;;;;;;;2.00;0.50;;;;;10.80;53.81;100087.59;5040413;28;45406;-66
2023/04/14 10:21:51;;;;;;;;;3.00;2.00;;;;;10.82;53.82;100094.53;5040403;28;45221;-66
2023/04/14 10:24:19;;;;;;;;;4.50;2.00;;;;;10.85;53.71;100083.06;5039922;28;45187;-66
2023/04/14 10:26:46;;;;;;;;;2.00;0.00;;;;;10.89;53.43;100080.34;5040157;28;45367;-66
2023/04/14 10:29:11;;;;;;;;;2.00;2.00;;;;;10.90;53.75;100075.94;5040427;28;45474;-66
2023/04/14 10:31:41;;;;;;;;;1.25;1.25;;;;;10.93;53.79;100067.97;5020861;28;45451;-66
2023/04/14 10:34:11;;;;;;;;;3.50;2.00;;;;;10.99;53.68;100073.06;5039529;28;45704;-66
2023/04/14 10:36:37;;;;;;;;;1.50;1.50;;;;;11.00;53.59;100074.78;5040051;28;46228;-66
2023/04/14 10:39:04;;;;;;;;;0.75;0.75;;;;;11.03;53.50;100068.56;5039624;28;45320;-67
2023/04/14 10:41:46;;;;;;;;;1.50;0.25;;;;;11.06;53.63;100066.72;5040048;28;45243;-66
2023/04/14 10:44:31;;;;;;;;;1.00;1.00;;;;;11.06;53.55;100053.56;5039949;28;45361;-66
2023/04/14 10:47:00;;;;;;;;;1.00;1.00;;;;;11.08;53.57;100044.78;5040030;28;46209;-66
2023/04/14 10:49:34;;;;;;;;;4.75;0.00;;;;;11.06;53.35;100040.44;5039895;28;45343;-66
2023/04/14 10:52:04;;;;;;;;;1.00;1.00;;;;;11.12;53.56;100038.53;5025506;28;45245;-66
2023/04/14 10:54:51;;;;;;;;;1.00;1.00;;;;;11.16;53.53;100046.31;5020136;28;45538;-66
2023/04/14 10:57:17;;;;;;;;;3.00;2.50;;;;;11.16;53.34;100032.31;5019874;28;47078;-65
2023/04/14 10:59:46;;;;;;;;;3.50;2.00;;;;;11.20;53.30;100031.31;5020082;28;45249;-66
2023/04/14 11:02:24;;;;;;;;;1.00;1.00;;;;;11.22;53.23;100024.25;5019837;28;45293;-66
2023/04/14 11:05:09;;;;;;;;;1.75;1.75;;;;;11.24;53.10;100030.31;5019576;28;45409;-67
2023/04/14 11:07:43;;;;;;;;;5.25;2.00;;;;;11.25;53.40;100018.03;5019743;28;45335;-66
2023/04/14 11:10:20;;;;;;;;;1.25;1.25;;;;;11.27;53.30;100027.59;5019497;28;45390;-66
2023/04/14 11:13:04;;;;;;;;;3.00;2.00;;;;;11.30;53.33;100026.66;5019825;28;45319;-65
2023/04/14 11:15:43;;;;;;;;;3.00;1.00;;;;;11.31;53.33;100015.22;5027985;28;45473;-65
2023/04/14 11:18:27;;;;;;;;;2.00;2.00;;;;;11.32;53.34;100012.56;5039260;28;45248;-65
2023/04/14 11:20:53;;;;;;;;;3.00;3.00;;;;;11.35;53.18;100016.84;5039436;28;45340;-67
2023/04/14 11:23:26;;;;;;;;;8.25;6.25;;;;;11.38;53.08;100004.47;5038577;28;45258;-66
2023/04/14 11:25:58;;;;;;;;;4.25;2.50;;;;;11.43;53.18;100006.97;5054945;28;45737;-67
2023/04/14 11:28:28;;;;;;;;;4.00;3.00;;;;;11.46;53.13;100003.38;5055191;28;45593;-67
2023/04/14 11:30:56;;;;;;;;;3.50;3.50;;;;;11.48;53.24;100009.47;5024849;27;45265;-67
2023/04/14 11:33:24;;;;;;;;;4.50;4.00;;;;;11.50;52.83;99995.34;5031321;28;45313;-67